Other Surface Observations
Issued by NWS Great Falls, MT

Home | Current Version | Previous Version | Text Only | Print | Product List | Glossary On
Versions: 1 2 3 4 5 6 7 8 9 10 11 12 13 14 15 16 17 18 19 20 21 22 23 24 25 26 27 28 29 30 31 32 33 34 35 36 37 38 39 40 41 42 43 44 45 46 47 48 49 50
000
SXUS55 KTFX 020444
OSOTFX

AREA AWOS OBSERVATIONS
NATIONAL WEATHER SERVICE GREAT FALLS MT
1042 PM MDT Sat Aug 01 2015

METAR K6S8 020255Z AUTO 31002KT 40SM 28/01 A2992 RMK A01 T02830005
METAR K7S0 020355Z AUTO 21000KT 40SM 24/04 A2999 RMK A01 T02380038
METAR K7S1 020355Z AUTO 04002KT 40SM 24/04 A3004 RMK A01 T02380044
METAR K97M 020355Z AUTO 35000KT 40SM 24/M02 A2992 RMK A01 T02441022
METAR K9S2 020355Z AUTO 36004KT 40SM 18/10 A2992 RMK A01 T01770100
METAR K9S5 020355Z AUTO 06000KT 25SM 19/19 A3000 RMK A01 T01940194
METAR KM75 020355Z AUTO 03008KT 40SM 24/13 A2986 RMK A01 T02380133
METAR KRPX 020355Z AUTO 33000KT 40SM 27/M03 A2986 RMK A01 T02721027
METAR KS01 020355Z AUTO 30001KT 15SM 23/02 A2997 RMK A01 T02330022
METAR KS34 020355Z AUTO 33000KT 25SM 23/04 A2993 RMK A01 T02270044
METAR KTHM 020355Z AUTO 26003KT 40SM 23/M04 A2995 RMK A01 T02331038



USA.gov is the U.S. government's official web portal to all federal, state and local government web resources and services.